Time;durP1;ratioP1;P1;durP2;ratioP2;P2;SDS_P1;SDS_P2;PMS_P1;PMS_P2;Temp;Humidity;BMP_temperature;BMP_pressure;BME280_temperature;BME280_humidity;BME280_pressure;Samples;Min_cycle;Max_cycle;Signal;HPM_P1;HPM_P2
2021/04/25 00:02:21;;;;;;;3.63;0.90;;;2.80;99.90;;;1.10;77.94;102063.19;4812427;28;20136;-81
2021/04/25 00:04:44;;;;;;;2.67;1.10;;;2.80;99.90;;;1.18;77.96;102058.97;4813956;28;20089;-78
2021/04/25 00:07:07;;;;;;;8.38;1.20;;;2.80;99.90;;;1.19;78.27;102060.72;4809593;28;20089;-81
2021/04/25 00:09:29;;;;;;;1.35;0.82;;;2.90;99.90;;;1.25;77.01;102046.94;4811646;28;20100;-80
2021/04/25 00:11:52;;;;;;;4.50;1.02;;;2.90;99.90;;;1.25;77.61;102053.84;4810898;28;20151;-82
2021/04/25 00:14:15;;;;;;;1.25;0.80;;;2.90;99.90;;;1.26;77.13;102048.69;4812598;28;20116;-81
2021/04/25 00:16:39;;;;;;;2.08;0.77;;;2.90;99.90;;;1.24;77.00;102047.81;4808542;28;20100;-81
2021/04/25 00:19:05;;;;;;;1.15;0.47;;;2.90;99.90;;;1.27;76.99;102049.56;4810666;28;20085;-81
2021/04/25 00:21:28;;;;;;;3.42;0.73;;;2.90;99.90;;;1.27;76.49;102045.22;4811167;28;20088;-81
2021/04/25 00:23:51;;;;;;;1.83;0.70;;;2.90;99.90;;;1.24;76.92;102034.81;4809843;28;20135;-80
2021/04/25 00:26:14;;;;;;;2.13;0.75;;;2.90;99.90;;;1.26;77.12;102042.63;4811100;28;20097;-80
2021/04/25 00:28:37;;;;;;;1.27;0.52;;;2.90;99.90;;;1.29;77.55;102043.53;4812966;28;20093;-82
2021/04/25 00:31:00;;;;;;;1.20;0.60;;;;;;;1.29;77.27;102038.34;4810039;28;20555;-81
2021/04/25 00:33:24;;;;;;;1.65;0.88;;;;;;;1.32;76.98;102037.50;4810323;28;20101;-78
2021/04/25 00:35:46;;;;;;;1.88;0.68;;;3.00;99.90;;;1.36;76.15;102039.28;4810958;28;20101;-81
2021/04/25 00:38:10;;;;;;;2.25;0.68;;;3.00;99.90;;;1.38;76.18;102038.47;4812338;28;20452;-78
2021/04/25 00:40:32;;;;;;;2.95;0.80;;;3.00;99.90;;;1.40;75.98;102041.06;4812842;28;20176;-81
2021/04/25 00:42:55;;;;;;;4.13;0.73;;;3.00;99.90;;;1.39;76.29;102039.34;4809951;28;20607;-81
2021/04/25 00:45:19;;;;;;;3.20;0.50;;;3.00;99.90;;;1.43;75.80;102038.53;4810978;28;20105;-78
2021/04/25 00:47:44;;;;;;;1.45;0.65;;;3.10;99.90;;;1.46;75.05;102035.09;4810866;28;20124;-81
2021/04/25 00:50:10;;;;;;;1.40;0.50;;;3.10;99.90;;;1.44;75.74;102035.94;4810554;28;20085;-79
2021/04/25 00:52:38;;;;;;;2.28;0.43;;;3.10;99.90;;;1.40;75.50;102036.78;4812865;28;20097;-81
2021/04/25 00:55:01;;;;;;;3.58;0.52;;;3.00;99.90;;;1.35;75.74;102037.56;4812050;28;20088;-82
2021/04/25 00:57:24;;;;;;;1.77;0.65;;;3.00;99.90;;;1.33;75.48;102036.66;4808049;28;20148;-81
2021/04/25 00:59:47;;;;;;;2.15;0.60;;;3.00;99.90;;;1.32;75.72;102043.59;4811482;28;20093;-81
2021/04/25 01:02:11;;;;;;;1.85;0.65;;;3.00;99.90;;;1.30;75.62;102031.44;4811605;28;20093;-80
2021/04/25 01:04:34;;;;;;;2.45;0.80;;;2.90;99.90;;;1.29;76.29;102038.34;4811233;28;20109;-80
2021/04/25 01:06:57;;;;;;;4.25;0.63;;;2.90;99.90;;;1.27;76.49;102039.19;4809596;28;20108;-81
2021/04/25 01:09:20;;;;;;;1.67;0.40;;;2.90;99.90;;;1.22;77.16;102023.56;4809373;28;20187;-77
2021/04/25 01:11:43;;;;;;;6.00;0.93;;;2.90;99.90;;;1.21;77.68;102027.03;4811334;28;20448;-81
2021/04/25 01:14:06;;;;;;;0.88;0.50;;;2.90;99.90;;;1.21;77.33;102027.03;4811991;28;20085;-82
2021/04/25 01:16:29;;;;;;;7.97;1.00;;;2.90;99.90;;;1.22;77.15;102020.97;4811181;28;20089;-81
2021/04/25 01:18:52;;;;;;;0.68;0.32;;;2.80;99.90;;;1.16;78.08;102026.06;4809275;28;20525;-81
2021/04/25 01:21:16;;;;;;;1.85;0.50;;;2.80;99.90;;;1.05;78.65;102023.34;4810796;28;20088;-78
2021/04/25 01:23:39;;;;;;;0.45;0.45;;;2.70;99.90;;;1.12;77.73;102032.06;4809819;28;20172;-81
2021/04/25 01:26:02;;;;;;;3.72;0.77;;;2.80;99.90;;;1.14;77.40;102022.59;4811568;28;20097;-79
2021/04/25 01:28:25;;;;;;;3.78;0.50;;;2.80;99.90;;;1.13;77.93;102023.44;4810609;28;20100;-82
2021/04/25 01:30:48;;;;;;;1.00;0.60;;;2.80;99.90;;;1.15;78.03;102020.00;4809836;28;20097;-82
2021/04/25 01:33:11;;;;;;;1.95;1.00;;;;;;;1.19;78.02;102018.34;4812534;28;20120;-82
2021/04/25 01:35:34;;;;;;;1.00;0.70;;;2.80;99.90;;;1.16;78.96;102026.06;4814331;28;20160;-81
2021/04/25 01:37:58;;;;;;;1.85;0.60;;;2.80;99.90;;;1.12;79.77;102022.56;4814554;28;20548;-80
2021/04/25 01:40:25;;;;;;;1.05;0.60;;;2.80;99.90;;;1.11;79.09;102020.81;4814946;28;20093;-80
2021/04/25 01:42:48;;;;;;;1.63;0.68;;;2.80;99.90;;;1.14;78.52;102028.63;4813567;28;20500;-81
2021/04/25 01:45:16;;;;;;;2.53;0.77;;;2.80;99.90;;;1.10;79.58;102031.16;4813076;28;20113;-81
2021/04/25 01:47:39;;;;;;;3.30;0.50;;;2.70;99.90;;;1.07;77.98;102020.75;4813407;28;20524;-82
2021/04/25 01:50:02;;;;;;;1.15;0.50;;;2.70;99.90;;;1.11;77.65;102030.34;4814789;28;20457;-82
2021/04/25 01:52:26;;;;;;;2.90;0.63;;;2.70;99.90;;;1.14;77.64;102017.41;4814433;28;20456;-82
2021/04/25 01:54:49;;;;;;;1.85;1.00;;;2.80;99.90;;;1.21;77.99;102019.22;4812580;28;20096;-82
2021/04/25 01:57:12;;;;;;;2.72;0.60;;;2.90;99.90;;;1.24;77.90;102021.84;4812089;28;20089;-81
2021/04/25 01:59:35;;;;;;;1.25;0.50;;;2.90;99.90;;;1.23;78.24;102015.81;4814578;28;20093;-81
2021/04/25 02:01:58;;;;;;;1.23;0.70;;;2.90;99.90;;;1.23;77.28;102017.50;4813553;28;20081;-81
2021/04/25 02:04:21;;;;;;;1.80;0.55;;;2.90;99.90;;;1.22;77.41;102016.63;4815362;28;20110;-78
2021/04/25 02:06:44;;;;;;;1.73;0.63;;;2.80;99.90;;;1.20;78.00;102013.16;4812346;28;20095;-82
2021/04/25 02:09:07;;;;;;;4.57;0.80;;;2.80;99.90;;;1.15;78.37;102014.81;4815107;28;20108;-82
2021/04/25 02:11:31;;;;;;;2.78;0.50;;;2.80;99.90;;;1.11;78.98;102007.00;4813106;28;20085;-82
2021/04/25 02:13:53;;;;;;;3.05;0.63;;;2.70;99.90;;;1.11;79.35;102012.19;4814528;28;20100;-79
2021/04/25 02:16:16;;;;;;;4.90;0.50;;;2.80;99.90;;;1.10;79.34;102008.72;4814803;28;20440;-81
2021/04/25 02:18:39;;;;;;;3.75;0.43;;;2.80;99.90;;;1.14;79.10;102012.19;4811859;28;20093;-78
2021/04/25 02:21:02;;;;;;;2.65;0.50;;;2.80;99.90;;;1.15;78.87;102009.63;4813430;28;20097;-82
2021/04/25 02:23:25;;;;;;;0.90;0.50;;;2.80;99.90;;;1.13;79.07;102007.88;4814013;28;20089;-79
2021/04/25 02:25:47;;;;;;;4.63;0.75;;;2.80;99.90;;;1.14;78.70;102001.81;4813361;28;20093;-80
2021/04/25 02:28:11;;;;;;;0.88;0.52;;;2.80;99.90;;;1.13;78.27;102000.09;4813357;28;20525;-82
2021/04/25 02:30:37;;;;;;;2.47;0.65;;;2.80;99.90;;;1.14;77.83;101999.22;4812345;28;20093;-80
2021/04/25 02:33:01;;;;;;;6.40;0.60;;;2.80;99.90;;;1.17;77.59;102001.88;4812573;28;20114;-81
2021/04/25 02:35:26;;;;;;;2.25;0.70;;;2.80;99.90;;;1.19;77.44;101997.59;4813436;28;20081;-79
2021/04/25 02:37:50;;;;;;;2.42;0.43;;;2.80;99.90;;;1.21;77.43;101995.88;4813436;28;20106;-77
2021/04/25 02:40:19;;;;;;;3.65;0.50;;;2.80;99.90;;;1.22;77.65;101997.59;4813031;28;20533;-80
2021/04/25 02:42:42;;;;;;;3.97;0.43;;;;;;;1.19;78.52;101997.59;4812584;28;20187;-81
2021/04/25 02:45:08;;;;;;;5.47;0.70;;;2.80;99.90;;;1.16;78.46;101995.81;4812209;28;20585;-81
2021/04/25 02:47:37;;;;;;;0.57;0.35;;;2.80;99.90;;;1.17;78.08;101994.97;4812078;28;20532;-81
2021/04/25 02:50:00;;;;;;;5.50;0.43;;;2.80;99.90;;;1.15;78.63;101999.25;4813882;28;20089;-81
2021/04/25 02:52:26;;;;;;;1.02;0.68;;;2.80;99.90;;;1.09;78.91;101993.13;4813511;28;20124;-81
2021/04/25 02:54:48;;;;;;;6.07;0.63;;;2.70;99.90;;;0.99;79.92;101985.22;4812072;28;20092;-81
2021/04/25 02:57:11;;;;;;;2.67;0.95;;;2.60;99.90;;;0.94;79.82;101993.78;4810833;28;20223;-78
2021/04/25 02:59:34;;;;;;;2.53;0.55;;;2.60;99.90;;;0.88;80.16;101988.53;4815046;28;20088;-81
2021/04/25 03:01:58;;;;;;;0.70;0.30;;;2.60;99.90;;;0.90;79.87;101992.88;4814066;28;20097;-82
2021/04/25 03:04:20;;;;;;;1.25;0.55;;;2.60;99.90;;;0.95;79.20;101995.53;4811154;28;20085;-81
2021/04/25 03:06:43;;;;;;;1.00;0.50;;;2.60;99.90;;;0.92;79.39;101993.75;4812237;28;20085;-81
2021/04/25 03:09:06;;;;;;;1.92;0.38;;;2.60;99.90;;;0.96;79.27;101997.28;4812983;28;20093;-81
2021/04/25 03:11:29;;;;;;;0.85;0.35;;;2.60;99.90;;;0.99;79.17;101993.00;4814793;28;20081;-82
2021/04/25 03:13:52;;;;;;;0.73;0.40;;;2.70;99.90;;;1.02;79.00;101993.03;4812163;28;20092;-81
2021/04/25 03:16:14;;;;;;;3.30;0.38;;;2.70;99.90;;;1.00;79.61;102005.13;4812053;28;20104;-80
2021/04/25 03:18:38;;;;;;;2.60;0.40;;;2.60;99.90;;;0.99;79.86;102008.56;4811712;28;20089;-80
2021/04/25 03:21:01;;;;;;;0.82;0.77;;;2.60;99.90;;;0.98;80.87;102003.34;4811952;28;20092;-81
2021/04/25 03:23:24;;;;;;;0.88;0.30;;;2.60;99.90;;;0.93;80.52;102008.50;4810942;28;20448;-81
2021/04/25 03:25:47;;;;;;;1.02;0.50;;;2.60;99.90;;;0.94;80.25;102006.75;4813761;28;20089;-80
2021/04/25 03:28:10;;;;;;;2.60;0.50;;;2.60;99.90;;;0.88;80.53;102004.06;4809780;28;20161;-81
2021/04/25 03:30:33;;;;;;;1.25;0.40;;;;;;;0.82;81.66;102005.75;4812718;28;20489;-80
2021/04/25 03:32:56;;;;;;;3.35;0.57;;;2.50;99.90;;;0.81;81.12;102008.31;4812867;28;20097;-81
2021/04/25 03:35:20;;;;;;;0.73;0.40;;;2.50;99.90;;;0.83;81.36;102009.19;4812982;28;20081;-81
2021/04/25 03:37:43;;;;;;;4.05;0.75;;;2.50;99.90;;;0.82;81.24;102002.25;4811212;28;20093;-80
2021/04/25 03:40:10;;;;;;;3.00;0.52;;;2.50;99.90;;;0.78;81.64;102006.56;4812487;28;20093;-81
2021/04/25 03:42:33;;;;;;;2.05;0.65;;;2.40;99.90;;;0.79;80.95;101999.63;4809543;28;20081;-81
2021/04/25 03:44:56;;;;;;;4.07;0.40;;;2.50;99.90;;;0.83;81.08;101998.84;4803498;28;20098;-79
2021/04/25 03:47:18;;;;;;;0.55;0.50;;;2.50;99.90;;;0.85;80.79;102004.91;4810220;28;20529;-81
2021/04/25 03:49:41;;;;;;;6.40;0.50;;;2.50;99.90;;;0.85;82.23;102011.81;4813559;28;20318;-81
2021/04/25 03:52:07;;;;;;;1.75;0.50;;;2.50;99.90;;;0.81;81.67;102008.31;4809767;28;20156;-80
2021/04/25 03:54:31;;;;;;;4.18;1.50;;;2.40;99.90;;;0.79;81.58;102002.22;4810943;28;20093;-81
2021/04/25 03:56:54;;;;;;;1.48;0.70;;;2.50;99.90;;;0.81;81.22;102008.31;4812892;28;20104;-81
2021/04/25 03:59:17;;;;;;;3.28;0.47;;;2.50;99.90;;;0.80;81.72;102004.00;4809717;28;20096;-81
2021/04/25 04:01:40;;;;;;;2.30;0.80;;;2.50;99.90;;;0.80;82.04;102004.00;4812993;28;20544;-79
2021/04/25 04:04:03;;;;;;;6.40;0.70;;;2.50;99.90;;;0.79;82.56;102000.50;4813933;28;20097;-81
2021/04/25 04:06:26;;;;;;;3.03;0.60;;;2.50;99.90;;;0.78;83.06;101998.78;4811480;28;20089;-81
2021/04/25 04:08:50;;;;;;;1.27;0.57;;;2.50;99.90;;;0.85;82.34;102002.31;4810270;28;20089;-81
2021/04/25 04:11:13;;;;;;;3.83;0.52;;;2.50;99.90;;;0.90;82.00;102000.66;4811826;28;20085;-81
2021/04/25 04:13:36;;;;;;;5.45;0.70;;;2.60;99.90;;;1.06;80.37;102003.44;4812100;28;20089;-81
2021/04/25 04:15:59;;;;;;;5.60;0.60;;;2.80;99.90;;;1.19;80.48;102000.19;4813241;28;20105;-82
2021/04/25 04:18:21;;;;;;;0.93;0.55;;;2.90;99.90;;;1.38;80.54;102002.16;4811595;28;20089;-81
2021/04/25 04:20:44;;;;;;;0.90;0.45;;;3.10;99.90;;;1.58;80.14;101994.56;4811956;28;20187;-81
2021/04/25 04:23:07;;;;;;;1.83;0.60;;;3.30;99.90;;;1.76;79.18;101993.88;4812177;28;20582;-79
2021/04/25 04:25:31;;;;;;;4.72;1.42;;;3.50;99.90;;;1.85;78.96;102001.75;4813881;28;20529;-81
2021/04/25 04:27:54;;;;;;;1.77;0.57;;;3.60;99.90;;;1.95;78.33;101997.53;4809348;28;20449;-81
2021/04/25 04:30:17;;;;;;;1.30;0.50;;;3.70;99.90;;;2.23;77.21;101996.06;4811888;28;20631;-81
2021/04/25 04:32:40;;;;;;;6.07;0.50;;;4.10;99.90;;;2.54;76.76;101996.28;4812099;28;20163;-80
2021/04/25 04:35:05;;;;;;;2.03;0.60;;;4.40;99.90;;;2.78;75.78;102000.75;4813212;28;20097;-81
2021/04/25 04:37:28;;;;;;;1.88;0.40;;;4.70;99.90;;;3.36;74.62;101999.31;4811398;28;20085;-80
2021/04/25 04:39:51;;;;;;;2.25;0.60;;;5.70;99.90;;;4.22;68.90;102000.34;4809569;28;20492;-81
2021/04/25 04:42:15;;;;;;;1.17;0.40;;;6.40;99.90;;;4.69;66.74;102009.88;4811353;28;20091;-79
2021/04/25 04:44:37;;;;;;;2.25;0.57;;;6.80;99.90;;;4.99;65.08;102007.16;4810583;28;20086;-80
2021/04/25 04:47:00;;;;;;;1.35;0.40;;;7.30;99.90;;;5.93;63.09;101992.78;4812220;28;20086;-82
2021/04/25 04:49:23;;;;;;;1.85;0.50;;;8.10;99.90;;;6.61;60.93;101989.63;4810973;28;20089;-82
2021/04/25 04:51:46;;;;;;;2.83;0.40;;;8.50;99.90;;;6.56;58.79;101999.25;4811345;28;20086;-82
2021/04/25 04:54:09;;;;;;;1.63;0.55;;;;;;;6.47;60.15;101989.75;4809516;28;20090;-79
2021/04/25 04:56:32;;;;;;;4.07;0.52;;;8.30;99.90;;;6.25;60.79;102003.91;4811520;28;20096;-82
2021/04/25 04:58:56;;;;;;;1.70;0.35;;;8.30;99.90;;;6.28;60.41;101999.50;4810987;28;20092;-81
2021/04/25 05:01:19;;;;;;;5.05;0.57;;;8.10;99.90;;;6.22;60.65;102002.19;4812285;28;20091;-79
2021/04/25 05:03:41;;;;;;;2.53;0.40;;;8.30;99.90;;;6.54;60.06;102001.91;4811646;28;20186;-81
2021/04/25 05:06:05;;;;;;;7.00;0.60;;;8.40;99.90;;;6.52;58.86;101995.81;4811554;28;20104;-79
2021/04/25 05:08:27;;;;;;;5.75;0.38;;;8.60;99.90;;;6.81;58.19;101997.28;4813236;28;20090;-81
2021/04/25 05:10:51;;;;;;;1.80;0.30;;;8.00;99.90;;;5.83;61.54;102017.25;4814696;28;20106;-81
2021/04/25 05:13:14;;;;;;;3.58;0.43;;;7.50;99.90;;;5.47;63.06;102010.50;4816155;28;20085;-81
2021/04/25 05:15:38;;;;;;;6.43;0.40;;;7.60;99.90;;;5.97;62.37;102006.72;4816418;28;20129;-79
2021/04/25 05:18:01;;;;;;;0.85;0.38;;;8.30;99.90;;;6.80;60.47;102008.63;4814022;28;20088;-81
2021/04/25 05:20:24;;;;;;;3.22;0.55;;;8.80;99.90;;;7.40;57.69;102008.78;4812978;28;20087;-81
2021/04/25 05:22:47;;;;;;;1.20;0.28;;;9.60;99.90;;;8.19;54.64;102005.03;4815866;28;20078;-78
2021/04/25 05:25:10;;;;;;;0.65;0.35;;;10.10;99.90;;;8.89;52.44;102010.81;4813548;28;20089;-80
2021/04/25 05:27:33;;;;;;;1.35;0.40;;;10.60;99.90;;;9.27;50.86;102005.72;4814770;28;20039;-82
2021/04/25 05:29:56;;;;;;;3.17;0.50;;;11.00;99.90;;;9.45;50.16;102003.56;4806178;28;20080;-81
2021/04/25 05:32:20;;;;;;;1.42;1.02;;;11.00;99.90;;;8.68;52.37;102014.72;4827740;28;20058;-77
2021/04/25 05:34:42;;;;;;;2.53;0.50;;;11.50;99.90;;;9.88;50.07;102001.72;4814496;28;20453;-78
2021/04/25 05:37:05;;;;;;;2.50;0.60;;;11.40;99.90;;;9.62;50.83;102005.81;4816253;28;20402;-83
2021/04/25 05:39:28;;;;;;;2.28;0.50;;;11.30;99.90;;;10.09;50.25;102004.78;4813803;28;20046;-82
2021/04/25 05:41:51;;;;;;;2.13;0.68;;;11.30;99.90;;;10.30;50.33;102006.03;4814663;28;20039;-81
2021/04/25 05:44:15;;;;;;;1.17;0.30;;;11.50;99.90;;;9.99;49.39;102007.59;4812074;28;20051;-82
2021/04/25 05:46:37;;;;;;;3.42;0.60;;;11.50;99.90;;;10.48;48.01;102002.09;4814783;28;20513;-81
2021/04/25 05:49:01;;;;;;;6.22;0.50;;;12.00;99.90;;;10.40;48.00;102000.50;4815668;28;20487;-79
2021/04/25 05:51:24;;;;;;;2.72;0.32;;;11.70;99.90;;;8.15;53.13;102019.09;4812987;28;20409;-82
2021/04/25 05:53:47;;;;;;;4.38;0.50;;;11.10;99.90;;;9.55;51.18;102008.63;4813525;28;20350;-79
2021/04/25 05:56:10;;;;;;;1.75;0.57;;;11.70;99.90;;;10.80;49.62;102007.34;4813240;28;20130;-81
2021/04/25 05:58:33;;;;;;;2.42;0.25;;;12.50;99.90;;;11.33;46.45;102005.88;4814483;28;20454;-82
2021/04/25 06:00:56;;;;;;;0.98;0.30;;;12.00;99.90;;;10.08;50.29;102011.78;4813638;28;20058;-81
2021/04/25 06:03:19;;;;;;;0.98;0.55;;;11.20;99.90;;;8.44;54.53;102023.88;4811973;28;20062;-79
2021/04/25 06:05:42;;;;;;;1.83;0.30;;;10.20;99.90;;;8.66;53.56;102029.66;4812023;28;20054;-80
2021/04/25 06:08:05;;;;;;;2.63;0.50;;;10.10;99.90;;;8.63;54.96;102030.56;4814441;28;20050;-82
2021/04/25 06:10:28;;;;;;;4.20;0.55;;;11.10;99.90;;;10.60;49.37;102022.81;4814218;28;20062;-81
2021/04/25 06:12:51;;;;;;;4.00;0.68;;;11.30;99.90;;;10.34;49.33;102024.34;4813608;28;20085;-80
2021/04/25 06:15:16;;;;;;;3.28;0.52;;;12.20;99.90;;;11.12;47.15;102021.38;4810701;28;20502;-81
2021/04/25 06:17:39;;;;;;;3.53;0.40;;;11.70;99.90;;;9.49;49.19;102021.91;4812317;28;20051;-82
2021/04/25 06:20:02;;;;;;;2.50;0.35;;;10.50;99.90;;;9.30;51.67;102024.06;4813400;28;20063;-83
2021/04/25 06:22:25;;;;;;;1.48;0.30;;;11.00;99.90;;;10.03;50.03;102026.81;4815157;28;20050;-81
2021/04/25 06:24:53;;;;;;;1.17;0.30;;;11.20;99.90;;;9.80;48.16;102016.81;4813300;28;20047;-80
2021/04/25 06:27:16;;;;;;;2.15;0.30;;;10.70;99.90;;;8.98;53.75;102026.41;4811312;28;20047;-81
2021/04/25 06:29:39;;;;;;;2.67;0.20;;;10.60;99.90;;;9.09;53.73;102027.97;4813314;28;20103;-82
2021/04/25 06:32:03;;;;;;;4.00;0.45;;;10.00;99.90;;;8.45;54.17;102037.91;4826491;28;20097;-81
2021/04/25 06:34:26;;;;;;;0.77;0.50;;;9.70;99.90;;;8.29;55.04;102030.22;4815360;28;21145;-82
2021/04/25 06:36:49;;;;;;;3.05;0.60;;;9.80;99.90;;;8.97;53.62;102040.44;4815281;28;20093;-81
2021/04/25 06:39:13;;;;;;;4.10;0.45;;;10.50;99.90;;;9.19;51.78;102034.78;4810650;28;20087;-82
2021/04/25 06:41:36;;;;;;;1.08;0.35;;;11.20;99.90;;;10.14;49.38;102031.84;4811566;28;20086;-81
2021/04/25 06:43:59;;;;;;;3.65;0.50;;;11.70;99.90;;;10.24;47.11;102034.22;4813589;28;20186;-82
2021/04/25 06:46:22;;;;;;;1.27;0.32;;;11.80;99.90;;;11.58;44.63;102030.63;4813651;28;20046;-81
2021/04/25 06:48:45;;;;;;;1.38;0.40;;;12.40;99.90;;;11.23;43.55;102039.53;4812391;28;20062;-81
2021/04/25 06:51:08;;;;;;;1.83;0.30;;;12.90;99.90;;;11.12;44.02;102029.31;4811031;28;20050;-82
2021/04/25 06:53:31;;;;;;;0.80;0.25;;;12.20;99.90;;;10.95;43.22;102039.44;4813431;28;20093;-82
2021/04/25 06:55:55;;;;;;;3.03;0.30;;;12.60;99.90;;;12.36;40.38;102044.94;4812931;28;20051;-83
2021/04/25 06:58:18;;;;;;;1.27;0.40;;;13.00;99.90;;;12.56;41.85;102042.47;4811214;28;20070;-82
2021/04/25 07:00:43;;;;;;;4.70;0.50;;;12.90;99.90;;;12.09;41.27;102032.59;4813008;28;20521;-82
2021/04/25 07:03:06;;;;;;;;;;;12.90;99.90;;;12.50;40.80;102040.94;4812612;28;20410;-82
2021/04/25 07:05:29;;;;;;;2.30;0.38;;;13.60;98.20;;;13.28;36.51;102034.69;4812731;28;19937;-82
2021/04/25 07:07:51;;;;;;;1.75;0.30;;;12.90;99.90;;;12.16;40.96;102041.19;4811064;28;20486;-82
2021/04/25 07:10:14;;;;;;;2.20;0.30;;;12.70;97.70;;;12.23;39.91;102041.84;4813392;28;20061;-78
2021/04/25 07:12:38;;;;;;;1.33;0.40;;;12.90;97.70;;;12.42;37.70;102042.06;4813946;28;20050;-82
2021/04/25 07:15:01;;;;;;;1.10;0.25;;;12.80;98.20;;;12.43;39.88;102044.66;4812474;28;20422;-83
2021/04/25 07:17:24;;;;;;;0.80;0.40;;;13.20;99.50;;;12.45;40.49;102050.78;4810058;28;20042;-83
2021/04/25 07:19:47;;;;;;;1.45;0.47;;;13.50;97.10;;;13.12;37.88;102038.78;4811303;28;20050;-82
2021/04/25 07:22:10;;;;;;;3.53;0.20;;;13.10;96.20;;;11.24;39.24;102044.78;4813523;28;20051;-79
2021/04/25 07:24:33;;;;;;;1.85;0.28;;;12.50;97.50;;;12.38;37.16;102043.13;4814202;28;20059;-82
2021/04/25 07:26:56;;;;;;;0.45;0.10;;;13.00;97.80;;;12.40;37.21;102054.50;4808612;28;20051;-83
2021/04/25 07:29:20;;;;;;;3.20;0.50;;;12.90;96.40;;;12.03;39.03;102048.63;4813046;28;20486;-82
2021/04/25 07:31:43;;;;;;;1.65;0.10;;;13.40;93.50;;;11.07;38.22;102058.44;4811341;28;20059;-79
2021/04/25 07:34:06;;;;;;;1.10;0.40;;;12.20;95.20;;;10.94;39.75;102057.03;4811666;28;20080;-78
2021/04/25 07:36:29;;;;;;;0.32;0.20;;;12.00;93.60;;;10.91;38.70;102051.88;4814821;28;20050;-82
2021/04/25 07:38:51;;;;;;;0.80;0.20;;;12.20;95.20;;;12.27;35.92;102046.13;4811701;28;20054;-82
2021/04/25 07:41:14;;;;;;;1.42;0.25;;;12.40;93.80;;;12.29;36.24;102053.06;4809980;28;20416;-83
2021/04/25 07:43:37;;;;;;;4.75;0.38;;;12.60;92.90;;;12.32;34.45;102052.94;4813131;28;20074;-78
2021/04/25 07:46:01;;;;;;;1.08;0.20;;;12.50;91.90;;;12.07;35.46;102044.97;4814150;28;20137;-82
2021/04/25 07:48:24;;;;;;;0.30;0.10;;;12.00;90.70;;;10.45;36.05;102058.28;4812439;28;20051;-82
2021/04/25 07:50:47;;;;;;;0.43;0.10;;;12.00;92.60;;;11.72;34.69;102048.66;4811225;28;20051;-83
2021/04/25 07:53:10;;;;;;;1.42;0.20;;;12.10;92.70;;;11.72;36.01;102045.16;4811570;28;20281;-82
2021/04/25 07:55:33;;;;;;;0.38;0.10;;;11.60;90.60;;;10.19;35.66;102051.00;4812531;28;20086;-83
2021/04/25 07:57:55;;;;;;;0.55;0.20;;;11.80;93.20;;;11.61;33.81;102043.72;4814127;28;20435;-83
2021/04/25 08:00:19;;;;;;;0.90;0.47;;;12.40;93.30;;;12.40;33.70;102047.44;4810996;28;20090;-78
2021/04/25 08:02:43;;;;;;;1.55;0.10;;;12.90;90.10;;;12.56;30.38;102052.19;4810303;28;20088;-82
2021/04/25 08:05:08;;;;;;;0.15;0.10;;;13.20;87.40;;;13.38;30.75;102044.91;4812532;28;20093;-82
2021/04/25 08:07:31;;;;;;;0.00;0.00;;;13.40;83.00;;;12.57;29.90;102045.97;4809872;28;20441;-81
2021/04/25 08:09:54;;;;;;;0.82;0.20;;;12.70;85.60;;;12.37;31.55;102050.16;4813867;28;20084;-82
2021/04/25 08:12:16;;;;;;;0.38;0.10;;;12.80;87.10;;;11.75;35.78;102056.50;4810617;28;20406;-82
2021/04/25 08:14:39;;;;;;;2.30;0.32;;;;;;;10.28;36.82;102058.69;4810522;28;20179;-81
2021/04/25 08:17:02;;;;;;;1.50;0.35;;;10.80;91.50;;;9.07;41.05;102062.19;4810957;28;20082;-81
2021/04/25 08:19:26;;;;;;;0.45;0.20;;;10.00;93.60;;;8.24;42.82;102066.19;4811900;28;20529;-80
2021/04/25 08:21:49;;;;;;;3.80;0.80;;;9.20;95.40;;;7.34;46.48;102070.88;4812883;28;20089;-81
2021/04/25 08:24:12;;;;;;;0.95;0.20;;;8.70;95.30;;;7.26;43.53;102065.75;4814852;28;20399;-78
2021/04/25 08:26:35;;;;;;;4.70;0.55;;;8.60;94.90;;;7.12;43.88;102068.50;4811907;28;20096;-81
2021/04/25 08:28:58;;;;;;;1.17;0.30;;;9.20;97.90;;;8.56;43.69;102049.94;4815199;28;20086;-81
2021/04/25 08:31:21;;;;;;;0.20;0.20;;;9.20;94.20;;;7.86;42.37;102062.38;4813775;28;20452;-79
2021/04/25 08:33:44;;;;;;;2.83;0.47;;;8.80;97.90;;;7.18;47.90;102071.06;4812110;28;20086;-81
2021/04/25 08:36:08;;;;;;;0.43;0.17;;;8.00;98.90;;;6.31;50.29;102069.25;4810520;28;20094;-81
2021/04/25 08:38:31;;;;;;;5.80;0.30;;;7.60;99.90;;;6.12;52.44;102065.91;4811064;28;20129;-82
2021/04/25 08:40:57;;;;;;;4.20;0.40;;;7.60;99.90;;;6.11;53.97;102077.22;4809835;28;20450;-80
2021/04/25 08:43:20;;;;;;;;;;;7.60;99.90;;;6.06;55.14;102079.00;4810987;28;20097;-78
2021/04/25 08:45:46;;;;;;;1.42;0.22;;;7.40;99.90;;;5.82;52.45;102069.53;4812950;28;19993;-81
2021/04/25 08:48:12;;;;;;;0.15;0.10;;;7.40;99.90;;;6.04;53.30;102071.16;4809575;28;20090;-79
2021/04/25 08:50:35;;;;;;;1.75;0.30;;;7.60;99.90;;;6.48;53.92;102076.97;4811106;28;20098;-78
2021/04/25 08:53:00;;;;;;;2.17;0.40;;;9.20;99.90;;;9.24;45.70;102065.34;4811842;28;20091;-81
2021/04/25 08:55:23;;;;;;;4.45;0.38;;;9.70;99.90;;;8.41;43.89;102068.56;4812106;28;20251;-79
2021/04/25 08:57:47;;;;;;;1.00;0.10;;;8.80;97.60;;;7.04;44.81;102078.22;4812500;28;20474;-81
2021/04/25 09:00:13;;;;;;;0.60;0.30;;;8.10;99.80;;;6.43;49.68;102069.16;4807827;28;20091;-81
2021/04/25 09:03:13;;;;;;;0.10;0.10;;;7.60;99.90;;;5.82;50.16;102074.78;4756867;28;20102;-80
2021/04/25 09:06:05;;;;;;;1.92;0.30;;;7.30;99.90;;;5.88;47.81;102078.22;4766545;28;20097;-79
2021/04/25 09:09:19;;;;;;;1.55;0.25;;;8.50;99.90;;;7.84;44.32;102056.28;4759479;28;20079;-80
2021/04/25 09:12:17;;;;;;;1.65;0.30;;;10.50;96.60;;;9.45;41.92;102045.63;4750169;28;20087;-78
2021/04/25 09:15:18;;;;;;;1.80;0.20;;;11.10;98.00;;;8.71;42.82;102054.06;4742149;28;20520;-80
2021/04/25 09:18:28;;;;;;;0.40;0.20;;;10.80;91.20;;;9.04;35.50;102051.72;4755341;28;20811;-81
2021/04/25 09:21:35;;;;;;;0.50;0.20;;;10.10;94.20;;;8.51;38.58;102061.41;4761359;28;20087;-81
2021/04/25 09:28:16;;;;;;;0.30;0.10;;;10.70;90.30;;;9.24;34.34;102048.69;4762050;28;20090;-77
2021/04/25 09:35:01;;;;;;;0.10;0.10;;;9.90;90.50;;;7.97;36.48;102068.34;4751019;28;20090;-79
2021/04/25 09:42:03;;;;;;;1.40;0.10;;;9.90;93.00;;;8.49;37.62;102061.44;4764271;28;20094;-78
2021/04/25 09:52:43;;;;;;;1.80;0.20;;;11.10;95.70;;;10.23;40.45;102071.09;4759227;28;20102;-79
2021/04/25 09:59:57;;;;;;;1.17;0.22;;;10.60;92.60;;;9.20;36.99;102061.03;4758620;28;20087;-82
2021/04/25 10:23:02;;;;;;;0.57;0.10;;;9.70;90.00;;;8.63;38.02;102074.31;4759124;28;20090;-82
2021/04/25 10:25:51;;;;;;;2.63;0.40;;;10.10;90.00;;;9.07;31.80;102077.06;4769242;28;20090;-81
2021/04/25 10:35:38;;;;;;;1.85;0.20;;;9.80;90.90;;;8.29;38.52;102087.09;4757358;28;20171;-81
2021/04/25 10:42:49;;;;;;;0.25;0.10;;;9.10;91.40;;;6.81;39.22;102093.28;4756452;28;20087;-83
2021/04/25 10:45:30;;;;;;;0.10;0.10;;;7.90;91.50;;;6.19;40.73;102093.75;4763582;28;20164;-80
2021/04/25 10:48:55;;;;;;;0.10;0.10;;;7.50;92.20;;;6.11;38.00;102090.31;4762576;28;20595;-79
2021/04/25 10:52:01;;;;;;;0.38;0.10;;;8.40;92.60;;;7.50;36.69;102097.81;4749932;28;20093;-78
2021/04/25 10:54:26;;;;;;;0.43;0.10;;;9.50;91.20;;;8.57;34.50;102095.44;4751962;28;20093;-78
2021/04/25 10:57:08;;;;;;;0.28;0.05;;;9.80;82.30;;;8.73;34.83;102094.28;4809791;28;55592;-81
2021/04/25 10:59:34;;;;;;;0.60;0.17;;;9.90;82.60;;;8.51;32.89;102085.03;4810272;28;21915;-80
2021/04/25 11:01:59;;;;;;;0.52;0.35;;;9.90;84.70;;;8.60;39.24;102083.13;4811268;28;20138;-81
2021/04/25 11:05:00;;;;;;;2.67;0.35;;;10.10;89.50;;;8.98;36.29;102091.22;4810757;28;20169;-80
2021/04/25 11:07:54;;;;;;;1.08;0.20;;;10.40;82.90;;;8.96;32.77;102085.13;4809994;28;20088;-78
2021/04/25 11:10:23;;;;;;;3.03;0.20;;;10.40;85.50;;;8.95;33.52;102084.28;4812913;28;20084;-80
2021/04/25 11:12:48;;;;;;;1.02;0.22;;;10.50;91.20;;;9.35;35.71;102080.00;4810774;28;20103;-79
2021/04/25 11:15:32;;;;;;;0.13;0.03;;;10.20;86.40;;;8.75;34.07;102076.75;4810939;28;20454;-85
2021/04/25 11:17:55;;;;;;;0.10;0.10;;;10.00;89.30;;;8.71;32.96;102069.81;4813249;28;20091;-78